Time;durP1;ratioP1;P1;durP2;ratioP2;P2;SDS_P1;SDS_P2;PMS_P1;PMS_P2;Temp;Humidity;BMP_temperature;BMP_pressure;BME280_temperature;BME280_humidity;BME280_pressure;Samples;Min_cycle;Max_cycle;Signal;HPM_P1;HPM_P2
2022/07/08 00:00:37;;;;;;;8.03;4.53;;;27.10;99.90;;;;;;1937677;72;21117;-78
2022/07/08 00:03:08;;;;;;;7.85;4.53;;;27.10;99.90;;;;;;1954280;72;21116;-80
2022/07/08 00:05:39;;;;;;;7.78;4.33;;;27.10;99.90;;;;;;1944592;72;21585;-79
2022/07/08 00:08:10;;;;;;;6.75;3.95;;;27.10;99.70;;;;;;1942854;72;21262;-80
2022/07/08 00:10:41;;;;;;;9.10;3.80;;;27.10;99.90;;;;;;1956455;72;21124;-78
2022/07/08 00:13:13;;;;;;;9.55;4.42;;;27.10;99.70;;;;;;1955161;72;21160;-79
2022/07/08 00:15:44;;;;;;;6.22;3.52;;;27.10;99.60;;;;;;1945150;72;21164;-79
2022/07/08 00:18:15;;;;;;;10.23;3.95;;;27.20;99.60;;;;;;1950884;72;21603;-80
2022/07/08 00:20:46;;;;;;;7.22;3.85;;;27.20;99.50;;;;;;1958670;72;21202;-79
2022/07/08 00:23:17;;;;;;;5.20;3.87;;;27.20;99.50;;;;;;1948371;72;21210;-80
2022/07/08 00:25:48;;;;;;;8.18;4.78;;;27.30;99.40;;;;;;1962039;72;21119;-80
2022/07/08 00:28:19;;;;;;;8.25;4.78;;;27.30;99.40;;;;;;1957611;72;21209;-79
2022/07/08 00:30:50;;;;;;;6.20;3.70;;;27.30;99.30;;;;;;1951064;72;21186;-80
2022/07/08 00:33:21;;;;;;;7.03;3.27;;;27.30;99.00;;;;;;1967832;72;21116;-79
2022/07/08 00:35:51;;;;;;;8.70;3.50;;;27.30;99.00;;;;;;1958921;72;21153;-79
2022/07/08 00:38:26;;;;;;;6.97;3.65;;;27.40;99.20;;;;;;1954003;72;21184;-79
2022/07/08 00:40:57;;;;;;;5.37;3.52;;;27.40;98.80;;;;;;1959642;72;21117;-79
2022/07/08 00:43:30;;;;;;;7.12;3.67;;;27.40;98.80;;;;;;1945966;74;21124;-79
2022/07/08 00:46:01;;;;;;;6.65;3.37;;;27.50;98.70;;;;;;1951881;72;21160;-79
2022/07/08 00:48:33;;;;;;;6.08;3.22;;;27.50;98.60;;;;;;1953494;72;22136;-79
2022/07/08 00:51:06;;;;;;;7.30;3.42;;;27.50;98.50;;;;;;1957031;72;21093;-81
2022/07/08 00:53:39;;;;;;;4.72;3.50;;;27.60;98.40;;;;;;1959244;72;21111;-79
2022/07/08 00:56:11;;;;;;;7.03;3.75;;;27.60;98.40;;;;;;1960753;72;21156;-79
2022/07/08 00:58:42;;;;;;;5.37;3.58;;;27.70;98.30;;;;;;1944168;72;21589;-79
2022/07/08 01:01:13;;;;;;;5.83;3.72;;;27.70;98.00;;;;;;1948744;72;21226;-78
2022/07/08 01:03:46;;;;;;;8.45;3.67;;;27.70;98.10;;;;;;1939729;72;21676;-79
2022/07/08 01:06:17;;;;;;;10.85;4.10;;;27.80;98.00;;;;;;1937492;72;21162;-81
2022/07/08 01:08:48;;;;;;;7.70;4.40;;;27.80;97.90;;;;;;1934885;72;21657;-80
2022/07/08 01:11:20;;;;;;;8.43;4.03;;;27.90;97.80;;;;;;1925844;73;21139;-79
2022/07/08 01:13:52;;;;;;;6.65;3.90;;;28.00;97.80;;;;;;1919863;73;21136;-78
2022/07/08 01:16:23;;;;;;;7.83;3.55;;;28.10;97.60;;;;;;1922447;72;21602;-78
2022/07/08 01:18:54;;;;;;;10.03;4.20;;;28.00;97.40;;;;;;1921630;73;21183;-79
2022/07/08 01:21:25;;;;;;;9.18;4.03;;;28.10;97.20;;;;;;1917208;73;21210;-78
2022/07/08 01:23:56;;;;;;;7.67;4.30;;;28.20;97.20;;;;;;1931863;73;21140;-79
2022/07/08 01:26:28;;;;;;;8.95;4.37;;;28.30;97.20;;;;;;1913200;73;21542;-78
2022/07/08 01:28:59;;;;;;;10.30;4.85;;;28.40;97.10;;;;;;1927663;73;21200;-79
2022/07/08 01:31:31;;;;;;;7.60;4.30;;;28.40;96.90;;;;;;1926549;73;21095;-80
2022/07/08 01:34:02;;;;;;;6.30;4.08;;;28.60;96.90;;;;;;1885215;74;21177;-81
2022/07/08 01:36:35;;;;;;;11.15;4.87;;;28.60;96.60;;;;;;1918753;73;21712;-80
2022/07/08 01:39:11;;;;;;;7.87;4.90;;;28.70;96.60;;;;;;1924817;73;21164;-79
2022/07/08 01:41:40;;;;;;;7.87;3.98;;;28.80;96.50;;;;;;1918165;73;21134;-80
2022/07/08 01:44:15;;;;;;;8.00;4.87;;;29.00;96.30;;;;;;1890736;73;21138;-78
2022/07/08 01:46:47;;;;;;;12.95;4.85;;;29.10;96.00;;;;;;1935404;71;21648;-80
2022/07/08 01:49:20;;;;;;;8.00;4.37;;;29.30;95.70;;;;;;1931913;73;21632;-78
2022/07/08 01:51:51;;;;;;;12.47;5.20;;;29.30;95.40;;;;;;1925149;73;21188;-80
2022/07/08 01:54:29;;;;;;;12.95;5.33;;;29.40;95.40;;;;;;1930019;73;21157;-80
2022/07/08 01:57:23;;;;;;;12.37;6.55;;;29.40;95.50;;;;;;1925668;73;21091;-80
2022/07/08 01:59:47;;;;;;;18.65;7.17;;;29.40;95.00;;;;;;1884123;73;21671;-80
2022/07/08 02:02:20;;;;;;;12.05;7.25;;;29.40;95.10;;;;;;1921274;73;21180;-79
2022/07/08 02:04:51;;;;;;;13.95;7.50;;;29.30;95.20;;;;;;1916907;73;21164;-78
2022/07/08 02:07:22;;;;;;;12.43;8.40;;;29.30;95.40;;;;;;1926442;73;21157;-79
2022/07/08 02:09:53;;;;;;;13.00;7.05;;;29.30;95.30;;;;;;1936457;72;21093;-79
2022/07/08 02:12:24;;;;;;;10.70;7.40;;;29.30;95.80;;;;;;1941844;72;21113;-79
2022/07/08 02:15:04;;;;;;;17.30;7.30;;;29.30;95.50;;;;;;1936844;72;21144;-79
2022/07/08 02:17:32;;;;;;;10.18;7.08;;;29.40;95.50;;;;;;1937716;72;21063;-79
2022/07/08 02:20:05;;;;;;;12.40;7.42;;;29.50;95.30;;;;;;1954147;73;21074;-80
2022/07/08 02:22:36;;;;;;;12.00;7.85;;;29.50;95.00;;;;;;1954950;72;21156;-78
2022/07/08 02:25:08;;;;;;;10.78;7.40;;;29.60;95.10;;;;;;1961207;72;21140;-81
2022/07/08 02:27:39;;;;;;;10.28;7.45;;;29.60;94.90;;;;;;1956360;72;22150;-79
2022/07/08 02:30:11;;;;;;;13.83;7.17;;;29.60;95.00;;;;;;1948964;72;21176;-79
2022/07/08 02:32:42;;;;;;;12.70;7.37;;;29.60;95.00;;;;;;1938365;73;21206;-79
2022/07/08 02:35:13;;;;;;;12.80;7.95;;;29.60;95.00;;;;;;1950399;72;21209;-81
2022/07/08 02:37:44;;;;;;;14.07;7.70;;;29.60;94.80;;;;;;1943059;72;21118;-80
2022/07/08 02:40:15;;;;;;;11.90;7.58;;;29.60;94.90;;;;;;1960519;72;21044;-80
2022/07/08 02:42:46;;;;;;;11.73;7.65;;;29.60;95.00;;;;;;1960525;72;21143;-79
2022/07/08 02:45:17;;;;;;;14.73;8.43;;;29.60;95.30;;;;;;1959676;72;21065;-79
2022/07/08 02:47:48;;;;;;;12.00;7.35;;;29.60;94.70;;;;;;1957826;72;21717;-80
2022/07/08 02:50:19;;;;;;;11.57;7.80;;;29.70;94.90;;;;;;1960829;72;21139;-80
2022/07/08 02:52:50;;;;;;;15.10;8.40;;;29.70;94.90;;;;;;1953326;72;21179;-80
2022/07/08 02:55:21;;;;;;;14.07;8.45;;;29.80;94.90;;;;;;1956693;72;21186;-80
2022/07/08 02:57:53;;;;;;;11.90;8.55;;;29.90;94.40;;;;;;1948904;72;21679;-81
2022/07/08 03:00:24;;;;;;;14.50;8.73;;;29.90;94.30;;;;;;1956193;72;21089;-81
2022/07/08 03:02:54;;;;;;;10.45;8.20;;;29.90;94.50;;;;;;1928196;72;21186;-80
2022/07/08 03:05:26;;;;;;;12.73;7.47;;;29.90;94.40;;;;;;1944322;72;21179;-80
2022/07/08 03:07:56;;;;;;;9.98;8.15;;;30.00;94.80;;;;;;1959593;72;21108;-81
2022/07/08 03:10:28;;;;;;;10.72;7.45;;;30.00;94.20;;;;;;1949169;72;21153;-79
2022/07/08 03:12:59;;;;;;;10.58;8.05;;;30.10;93.90;;;;;;1954046;72;21762;-81
2022/07/08 03:15:30;;;;;;;14.65;8.75;;;30.20;94.20;;;;;;1963547;72;21125;-79
2022/07/08 03:18:01;;;;;;;11.50;8.33;;;30.20;93.80;;;;;;1938362;72;21105;-79
2022/07/08 03:20:32;;;;;;;11.48;8.08;;;30.30;93.90;;;;;;1960321;72;21214;-80
2022/07/08 03:23:03;;;;;;;12.80;8.85;;;30.40;93.60;;;;;;1956200;72;21164;-80
2022/07/08 03:25:34;;;;;;;11.28;7.70;;;30.60;93.30;;;;;;1963334;72;21176;-80
2022/07/08 03:28:05;;;;;;;10.28;8.33;;;30.80;92.90;;;;;;1955689;72;21108;-79
2022/07/08 03:30:36;;;;;;;12.10;8.20;;;30.90;92.70;;;;;;1953693;72;21184;-80
2022/07/08 03:33:08;;;;;;;9.38;7.35;;;31.10;92.50;;;;;;1943586;72;21188;-78
2022/07/08 03:35:39;;;;;;;10.80;8.00;;;31.20;92.20;;;;;;1949842;72;21202;-80
2022/07/08 03:38:10;;;;;;;9.58;7.90;;;31.50;91.80;;;;;;1954512;72;21222;-79
2022/07/08 03:43:14;;;;;;;13.18;7.70;;;31.60;91.40;;;;;;1954620;72;21140;-80
2022/07/08 03:45:45;;;;;;;12.33;7.70;;;31.80;91.20;;;;;;1958746;72;21565;-80
2022/07/08 03:48:17;;;;;;;9.53;6.83;;;31.90;91.40;;;;;;1952733;72;21061;-81
2022/07/08 03:50:47;;;;;;;12.53;7.35;;;32.10;90.50;;;;;;1942748;72;22184;-81
2022/07/08 03:53:18;;;;;;;11.65;7.00;;;32.20;90.20;;;;;;1945883;72;21166;-79
2022/07/08 03:55:49;;;;;;;9.48;7.00;;;32.30;89.90;;;;;;1928742;73;21142;-80
2022/07/08 03:58:20;;;;;;;10.53;7.10;;;32.40;89.20;;;;;;1939511;72;21193;-79
2022/07/08 04:00:51;;;;;;;10.13;6.87;;;32.40;88.00;;;;;;1941116;72;21148;-80
2022/07/08 04:03:22;;;;;;;11.38;6.67;;;32.50;87.80;;;;;;1942249;72;21075;-80
2022/07/08 04:05:53;;;;;;;9.23;6.45;;;32.40;87.50;;;;;;1930756;73;21160;-81
2022/07/08 04:08:25;;;;;;;8.80;5.72;;;32.50;88.80;;;;;;1937428;72;21176;-79
2022/07/08 04:10:56;;;;;;;6.95;5.72;;;32.40;88.80;;;;;;1931392;72;21786;-80
2022/07/08 04:13:28;;;;;;;9.00;5.70;;;32.40;89.70;;;;;;1917511;73;21178;-78
2022/07/08 04:15:59;;;;;;;9.53;5.60;;;32.50;88.10;;;;;;1934934;71;21617;-78
2022/07/08 04:18:31;;;;;;;11.95;4.90;;;32.50;86.60;;;;;;1926317;73;21074;-78
2022/07/08 04:21:03;;;;;;;8.53;5.80;;;32.60;84.50;;;;;;1926084;73;21153;-79
2022/07/08 04:23:34;;;;;;;8.25;5.70;;;32.60;85.20;;;;;;1926024;73;21184;-79
2022/07/08 04:26:05;;;;;;;10.75;5.85;;;32.70;85.10;;;;;;1931169;73;21145;-79
2022/07/08 04:28:36;;;;;;;6.90;5.80;;;32.70;85.80;;;;;;1924667;73;21079;-80
2022/07/08 04:31:07;;;;;;;11.70;7.08;;;32.60;85.80;;;;;;1923825;73;21763;-80
2022/07/08 04:33:38;;;;;;;8.65;6.47;;;32.60;87.30;;;;;;1921050;73;21095;-79
2022/07/08 04:36:09;;;;;;;9.70;6.45;;;32.60;87.70;;;;;;1923610;73;21208;-81
2022/07/08 04:38:41;;;;;;;11.95;6.60;;;32.40;88.20;;;;;;1920904;73;21133;-80
2022/07/08 04:41:12;;;;;;;8.95;5.95;;;32.40;88.50;;;;;;1923849;73;21215;-80
2022/07/08 04:43:46;;;;;;;10.60;6.42;;;32.30;87.20;;;;;;1921044;73;21137;-81
2022/07/08 04:46:16;;;;;;;16.37;7.15;;;32.20;87.60;;;;;;1934153;73;21103;-80
2022/07/08 04:48:47;;;;;;;11.57;5.90;;;32.10;87.90;;;;;;1926081;73;21119;-79
2022/07/08 04:51:18;;;;;;;13.20;6.97;;;32.00;89.30;;;;;;1923774;73;21146;-80
2022/07/08 04:53:51;;;;;;;10.05;6.80;;;31.90;90.40;;;;;;1925354;73;21133;-80
2022/07/08 04:56:22;;;;;;;8.40;6.17;;;31.70;91.20;;;;;;1920890;73;21122;-78
2022/07/08 04:58:53;;;;;;;9.50;7.20;;;31.50;91.20;;;;;;1922950;73;21640;-79
2022/07/08 05:01:24;;;;;;;11.15;6.25;;;31.40;91.70;;;;;;1922564;73;21146;-79
2022/07/08 05:03:55;;;;;;;8.85;6.53;;;31.30;92.00;;;;;;1917506;73;21113;-80
2022/07/08 05:06:26;;;;;;;11.65;7.33;;;31.20;92.30;;;;;;1919804;73;21252;-81
2022/07/08 05:08:57;;;;;;;13.60;7.65;;;31.00;93.00;;;;;;1923369;73;21168;-80
2022/07/08 05:11:28;;;;;;;10.98;6.35;;;30.70;93.90;;;;;;1926829;73;21149;-80
2022/07/08 05:13:59;;;;;;;7.00;5.12;;;30.50;93.70;;;;;;1921227;73;21664;-79
2022/07/08 05:16:30;;;;;;;3.92;3.17;;;30.30;94.10;;;;;;1924888;73;21242;-79
2022/07/08 05:19:01;;;;;;;4.65;2.85;;;30.20;92.60;;;;;;1921238;73;21101;-80
2022/07/08 05:21:32;;;;;;;5.28;3.05;;;30.10;92.50;;;;;;1925976;73;21448;-79
2022/07/08 05:24:04;;;;;;;5.30;3.58;;;29.90;92.20;;;;;;1924045;73;21158;-80
2022/07/08 05:26:35;;;;;;;7.83;4.15;;;29.80;93.00;;;;;;1924111;73;21418;-79
2022/07/08 05:29:06;;;;;;;5.92;3.85;;;29.60;93.20;;;;;;1921704;73;21255;-81
2022/07/08 05:31:37;;;;;;;6.15;4.00;;;29.50;93.40;;;;;;1924253;73;21801;-78
2022/07/08 05:34:08;;;;;;;5.20;3.33;;;29.50;93.60;;;;;;1921205;73;21171;-80
2022/07/08 05:36:39;;;;;;;4.62;2.87;;;29.40;93.90;;;;;;1926305;73;21070;-80
2022/07/08 05:39:10;;;;;;;5.05;2.80;;;29.30;93.80;;;;;;1919914;73;21211;-78
2022/07/08 05:41:41;;;;;;;5.65;2.37;;;29.20;93.90;;;;;;1925844;73;21779;-79
2022/07/08 05:44:12;;;;;;;4.80;2.40;;;29.10;94.00;;;;;;1919870;73;21139;-79
2022/07/08 05:46:43;;;;;;;4.65;2.20;;;29.00;94.30;;;;;;1933394;73;21156;-79
2022/07/08 05:49:14;;;;;;;3.67;1.60;;;29.00;94.30;;;;;;1918540;73;21157;-80
2022/07/08 05:51:45;;;;;;;4.58;1.60;;;28.90;93.90;;;;;;1922094;73;21170;-80
2022/07/08 05:54:16;;;;;;;5.42;1.72;;;28.80;93.20;;;;;;1926970;73;21150;-80
2022/07/08 05:56:47;;;;;;;4.05;1.35;;;28.70;93.40;;;;;;1931392;72;21239;-78
2022/07/08 05:59:18;;;;;;;4.10;2.08;;;28.50;93.60;;;;;;1927763;73;21102;-79
2022/07/08 06:01:49;;;;;;;7.70;2.20;;;28.40;94.60;;;;;;1924763;73;21169;-78
2022/07/08 06:04:20;;;;;;;4.58;1.95;;;28.40;95.10;;;;;;1923692;73;21153;-78
2022/07/08 06:06:51;;;;;;;6.10;2.15;;;28.30;95.30;;;;;;1920196;73;21121;-79
2022/07/08 06:09:22;;;;;;;5.90;2.00;;;28.20;95.70;;;;;;1920242;73;21128;-80
2022/07/08 06:11:53;;;;;;;8.48;2.10;;;28.20;95.90;;;;;;1922531;73;21114;-79
2022/07/08 06:14:24;;;;;;;5.20;2.30;;;28.20;96.00;;;;;;1942217;73;21140;-79
2022/07/08 06:16:56;;;;;;;4.08;1.70;;;28.10;96.00;;;;;;1943338;73;21188;-78
2022/07/08 06:19:27;;;;;;;3.25;1.62;;;28.10;96.00;;;;;;1941433;73;21629;-79
2022/07/08 06:21:58;;;;;;;4.85;2.10;;;28.00;95.90;;;;;;1934296;73;21043;-79
2022/07/08 06:24:29;;;;;;;5.65;2.62;;;28.00;96.20;;;;;;1927906;73;21154;-78
2022/07/08 06:27:00;;;;;;;5.25;2.65;;;27.90;96.60;;;;;;1944441;73;21071;-79
2022/07/08 06:29:36;;;;;;;5.65;2.72;;;27.90;96.90;;;;;;1937233;73;21542;-78
2022/07/08 06:32:08;;;;;;;4.53;2.47;;;27.90;96.60;;;;;;1941862;73;21267;-79
2022/07/08 06:34:39;;;;;;;5.78;2.60;;;27.80;97.10;;;;;;1941362;73;21191;-80
2022/07/08 06:37:10;;;;;;;6.00;2.70;;;27.80;97.20;;;;;;1941924;73;21118;-79
2022/07/08 06:39:40;;;;;;;6.72;2.85;;;27.80;97.60;;;;;;1947435;73;21181;-79
2022/07/08 06:42:13;;;;;;;6.70;2.87;;;27.70;97.80;;;;;;1942646;73;21195;-79
2022/07/08 06:44:44;;;;;;;4.53;2.92;;;27.70;98.50;;;;;;1941329;71;21129;-78
2022/07/08 06:47:15;;;;;;;6.97;2.75;;;27.60;98.00;;;;;;1935973;72;21113;-80
2022/07/08 06:49:47;;;;;;;4.03;2.08;;;27.60;98.00;;;;;;1955011;73;21542;-79
2022/07/08 06:52:18;;;;;;;4.92;2.10;;;27.60;97.90;;;;;;1903932;74;21120;-79
2022/07/08 06:54:50;;;;;;;6.25;2.12;;;27.40;97.90;;;;;;1872030;75;21701;-78
2022/07/08 06:57:21;;;;;;;4.75;1.90;;;27.50;98.10;;;;;;1875863;75;21257;-79
2022/07/08 06:59:54;;;;;;;3.67;1.87;;;27.40;98.00;;;;;;1930878;73;21159;-80
2022/07/08 07:02:26;;;;;;;8.23;4.25;;;27.30;98.40;;;;;;1914910;73;21245;-80
2022/07/08 07:04:58;;;;;;;7.45;4.53;;;27.40;98.40;;;;;;1873168;75;21207;-79
2022/07/08 07:07:30;;;;;;;5.17;2.15;;;27.40;98.70;;;;;;1898847;74;21173;-78
2022/07/08 07:10:01;;;;;;;4.33;1.95;;;27.50;97.90;;;;;;1888118;74;21198;-78
2022/07/08 07:12:32;;;;;;;3.62;0.95;;;27.50;97.30;;;;;;1892281;73;21089;-80
2022/07/08 07:15:03;;;;;;;4.35;1.00;;;27.50;96.70;;;;;;1943763;72;21128;-79
2022/07/08 07:17:35;;;;;;;2.47;0.80;;;27.50;96.80;;;;;;1944487;72;21214;-79
2022/07/08 07:20:09;;;;;;;3.00;1.32;;;27.50;96.70;;;;;;1947191;72;21678;-79
2022/07/08 07:22:40;;;;;;;4.15;1.52;;;27.40;97.00;;;;;;1941811;73;21142;-79
2022/07/08 07:25:11;;;;;;;6.12;1.77;;;27.40;97.10;;;;;;1943816;73;21197;-80
2022/07/08 07:27:48;;;;;;;2.52;1.32;;;27.40;97.30;;;;;;1948660;72;21614;-78
2022/07/08 07:30:25;;;;;;;2.52;1.37;;;27.50;97.10;;;;;;1943776;72;21661;-79
2022/07/08 07:32:54;;;;;;;5.58;1.95;;;27.50;97.10;;;;;;1952567;72;21147;-80
2022/07/08 07:35:28;;;;;;;4.17;2.20;;;27.50;97.20;;;;;;1947063;72;21190;-84
2022/07/08 07:38:00;;;;;;;4.65;1.90;;;27.60;97.00;;;;;;1934690;72;21156;-81
2022/07/08 07:40:31;;;;;;;3.20;2.10;;;27.50;96.80;;;;;;1938564;72;21506;-82
2022/07/08 07:43:02;;;;;;;3.98;2.20;;;27.50;96.90;;;;;;1970405;72;21282;-82
2022/07/08 07:45:33;;;;;;;5.75;1.98;;;27.50;97.20;;;;;;1952214;72;21186;-80
2022/07/08 07:48:04;;;;;;;3.70;1.92;;;27.60;97.60;;;;;;1973401;72;21124;-79
2022/07/08 07:50:36;;;;;;;5.97;2.47;;;27.60;97.50;;;;;;1968279;72;21796;-79
2022/07/08 07:53:12;;;;;;;5.03;1.80;;;27.70;97.60;;;;;;1956843;72;21252;-79
2022/07/08 07:55:43;;;;;;;6.50;2.10;;;27.70;97.90;;;;;;1972037;71;21088;-80
2022/07/08 07:58:14;;;;;;;7.45;2.27;;;27.70;97.90;;;;;;1959401;72;21157;-80
2022/07/08 08:00:45;;;;;;;4.37;1.95;;;27.80;97.70;;;;;;1955532;72;21156;-80
2022/07/08 08:03:16;;;;;;;4.53;1.82;;;27.80;97.90;;;;;;1951840;72;21416;-80
2022/07/08 08:05:47;;;;;;;4.17;1.70;;;27.90;97.80;;;;;;1954074;72;21120;-80
2022/07/08 08:08:18;;;;;;;3.50;1.70;;;27.90;97.70;;;;;;1950503;72;21616;-81
2022/07/08 08:10:49;;;;;;;6.03;2.20;;;28.00;97.30;;;;;;1950335;72;21163;-80
2022/07/08 08:13:20;;;;;;;4.12;1.98;;;28.00;98.00;;;;;;1941392;72;21168;-79
2022/07/08 08:15:51;;;;;;;3.77;2.00;;;28.10;98.20;;;;;;1934683;72;21214;-80
2022/07/08 08:18:22;;;;;;;8.65;2.77;;;28.10;98.00;;;;;;1918239;72;21185;-80
2022/07/08 08:20:54;;;;;;;5.42;2.35;;;28.10;98.10;;;;;;1935379;72;21195;-81
2022/07/08 08:23:25;;;;;;;5.35;2.40;;;28.20;98.00;;;;;;1877416;75;21618;-81
2022/07/08 08:26:05;;;;;;;7.37;2.85;;;28.30;98.20;;;;;;1907239;73;21179;-81
2022/07/08 08:28:38;;;;;;;5.65;2.80;;;28.30;98.10;;;;;;1837497;76;21149;-81
2022/07/08 08:31:09;;;;;;;7.58;2.42;;;28.40;98.10;;;;;;1926088;72;21117;-80
2022/07/08 08:33:40;;;;;;;6.97;3.15;;;28.50;98.50;;;;;;1926087;73;21652;-79
2022/07/08 08:36:11;;;;;;;7.15;2.90;;;28.60;98.20;;;;;;1926736;73;21058;-79
2022/07/08 08:38:42;;;;;;;4.85;2.77;;;28.70;98.00;;;;;;1926356;73;21138;-79
2022/07/08 08:41:13;;;;;;;5.72;2.80;;;28.70;97.90;;;;;;1921688;73;21143;-77
2022/07/08 08:43:45;;;;;;;4.15;2.65;;;28.80;97.00;;;;;;1911230;73;21599;-79
2022/07/08 08:46:18;;;;;;;3.27;1.92;;;28.80;96.70;;;;;;1933474;73;21151;-79
2022/07/08 08:48:49;;;;;;;5.50;2.70;;;29.00;96.10;;;;;;1912664;73;21609;-80
2022/07/08 08:51:21;;;;;;;4.42;2.12;;;29.00;95.90;;;;;;1891903;74;21532;-81
2022/07/08 08:53:54;;;;;;;2.70;1.95;;;29.10;95.30;;;;;;1921853;73;21663;-79
2022/07/08 08:56:26;;;;;;;9.28;1.90;;;29.20;95.00;;;;;;1874265;75;21198;-79
2022/07/08 08:58:58;;;;;;;4.47;1.90;;;29.30;94.50;;;;;;1910561;73;21096;-79
2022/07/08 09:01:30;;;;;;;4.42;2.12;;;29.40;95.00;;;;;;1921265;73;21171;-81
2022/07/08 09:04:04;;;;;;;2.70;1.67;;;29.50;94.70;;;;;;1871044;75;21171;-80
2022/07/08 09:06:35;;;;;;;2.95;1.70;;;29.60;94.40;;;;;;1907662;73;21144;-79
2022/07/08 09:09:06;;;;;;;9.25;1.90;;;29.70;93.20;;;;;;1907228;73;21057;-80
2022/07/08 09:11:39;;;;;;;6.53;2.02;;;29.70;93.30;;;;;;1909276;73;21209;-81
2022/07/08 09:14:22;;;;;;;7.95;2.30;;;29.80;93.20;;;;;;1859620;74;21163;-83
2022/07/08 09:16:58;;;;;;;9.85;2.95;;;29.90;92.90;;;;;;1885425;74;21150;-80
2022/07/08 09:19:29;;;;;;;5.47;2.67;;;30.00;92.70;;;;;;1864787;75;21559;-80
2022/07/08 09:22:00;;;;;;;6.47;2.65;;;30.10;93.50;;;;;;1906744;73;21167;-81
2022/07/08 09:24:31;;;;;;;7.28;2.55;;;30.10;92.60;;;;;;1907519;73;21602;-81
2022/07/08 09:27:04;;;;;;;5.10;3.22;;;30.20;93.10;;;;;;1886504;75;21088;-80
2022/07/08 09:29:37;;;;;;;8.35;3.10;;;30.20;93.00;;;;;;1884846;75;21554;-79
2022/07/08 09:32:11;;;;;;;4.37;3.62;;;30.30;93.00;;;;;;1921016;73;21478;-80
2022/07/08 09:34:43;;;;;;;46.60;7.58;;;30.30;92.60;;;;;;1926813;73;21048;-80
2022/07/08 09:37:16;;;;;;;10.20;3.90;;;30.30;92.50;;;;;;1886726;73;21688;-80
2022/07/08 09:39:48;;;;;;;5.60;3.52;;;30.30;92.40;;;;;;1921818;73;21233;-81
2022/07/08 09:42:19;;;;;;;6.75;3.35;;;30.30;92.40;;;;;;1928224;73;21163;-79
2022/07/08 09:44:53;;;;;;;4.67;3.52;;;30.30;92.40;;;;;;1924101;73;21549;-81
2022/07/08 09:47:24;;;;;;;8.15;3.40;;;30.30;93.00;;;;;;1934040;73;21126;-79
2022/07/08 09:50:01;;;;;;;6.47;3.62;;;30.30;93.10;;;;;;1919163;73;21191;-81
2022/07/08 09:52:29;;;;;;;7.40;3.70;;;30.30;92.80;;;;;;1877007;75;21209;-80
2022/07/08 09:55:02;;;;;;;7.37;3.95;;;30.30;92.60;;;;;;1914272;73;21144;-81
2022/07/08 09:57:34;;;;;;;4.20;3.52;;;30.30;92.40;;;;;;1912693;73;21094;-80
2022/07/08 10:00:06;;;;;;;6.50;3.85;;;30.30;92.50;;;;;;1920616;73;21148;-81
2022/07/08 10:02:38;;;;;;;4.87;3.83;;;30.30;92.60;;;;;;1912061;73;21209;-81
2022/07/08 10:05:10;;;;;;;5.95;3.80;;;30.30;92.50;;;;;;1914917;73;21305;-81
2022/07/08 10:07:42;;;;;;;5.45;3.60;;;30.30;92.70;;;;;;1879456;74;21255;-81
2022/07/08 10:10:14;;;;;;;9.00;3.83;;;30.30;92.70;;;;;;1924626;73;21143;-80
2022/07/08 10:12:47;;;;;;;9.23;3.95;;;30.30;92.80;;;;;;1923231;73;21169;-82
2022/07/08 10:15:19;;;;;;;7.22;4.45;;;30.30;93.00;;;;;;1911787;73;21064;-81
2022/07/08 10:17:51;;;;;;;7.33;3.58;;;30.30;93.30;;;;;;1914385;74;21104;-81
2022/07/08 10:20:24;;;;;;;4.97;2.75;;;30.20;93.80;;;;;;1843287;76;21237;-81
2022/07/08 10:22:57;;;;;;;5.70;3.00;;;30.20;93.90;;;;;;1875885;76;21175;-80
2022/07/08 10:25:30;;;;;;;6.03;2.65;;;30.20;93.90;;;;;;1882488;74;21726;-81
2022/07/08 10:28:04;;;;;;;5.37;2.40;;;30.10;94.10;;;;;;1889083;75;21204;-80
2022/07/08 10:30:37;;;;;;;6.60;2.47;;;30.00;94.20;;;;;;1888704;75;21129;-81
2022/07/08 10:33:08;;;;;;;4.92;2.52;;;30.00;94.60;;;;;;1865222;75;21217;-82
2022/07/08 10:35:41;;;;;;;6.17;2.10;;;29.90;94.40;;;;;;1891569;75;21185;-82
2022/07/08 10:38:13;;;;;;;5.10;2.00;;;29.80;94.40;;;;;;1896256;75;21533;-80
2022/07/08 10:40:50;;;;;;;4.28;1.92;;;29.60;94.20;;;;;;1909627;74;21721;-81
2022/07/08 10:43:22;;;;;;;4.72;1.80;;;29.60;94.40;;;;;;1921439;74;21136;-80
2022/07/08 10:45:55;;;;;;;3.95;2.02;;;29.50;94.30;;;;;;1904802;74;21198;-81
2022/07/08 10:48:28;;;;;;;5.05;1.72;;;29.40;93.80;;;;;;1917430;74;21151;-80
2022/07/08 10:50:59;;;;;;;3.62;1.90;;;29.30;93.90;;;;;;1901315;75;21599;-81
2022/07/08 10:53:34;;;;;;;6.53;2.27;;;29.30;94.10;;;;;;1897837;75;21145;-80
2022/07/08 10:56:05;;;;;;;3.52;2.50;;;29.20;94.40;;;;;;1905634;75;21151;-80
2022/07/08 10:58:39;;;;;;;3.47;2.15;;;29.20;94.60;;;;;;1908464;75;21185;-80
2022/07/08 11:01:12;;;;;;;4.62;2.00;;;29.10;94.70;;;;;;1887660;74;21083;-79
2022/07/08 11:03:45;;;;;;;4.65;2.37;;;29.10;94.70;;;;;;1840002;78;21260;-79
2022/07/08 11:06:18;;;;;;;5.17;1.70;;;29.10;94.80;;;;;;1886718;75;21222;-80
2022/07/08 11:08:51;;;;;;;3.00;1.45;;;29.00;94.40;;;;;;1878930;75;21267;-80
2022/07/08 11:11:23;;;;;;;4.30;1.65;;;29.00;94.30;;;;;;1878419;75;21232;-81
2022/07/08 11:13:55;;;;;;;4.55;1.85;;;28.90;94.40;;;;;;1891778;75;21126;-80
2022/07/08 11:16:28;;;;;;;5.22;2.22;;;28.90;94.50;;;;;;1891932;75;21217;-80
2022/07/08 11:19:00;;;;;;;4.47;2.00;;;28.90;94.70;;;;;;1897200;75;21192;-80
2022/07/08 11:21:31;;;;;;;3.72;1.95;;;28.90;94.60;;;;;;1892114;75;21108;-80
2022/07/08 11:24:02;;;;;;;6.58;3.98;;;28.80;94.60;;;;;;1890397;75;21139;-79
2022/07/08 11:26:34;;;;;;;4.62;2.20;;;28.80;94.70;;;;;;1888771;75;21607;-80
2022/07/08 11:29:17;;;;;;;5.22;1.85;;;28.80;94.70;;;;;;1886320;75;21119;-79
2022/07/08 11:31:41;;;;;;;7.78;2.40;;;28.70;94.80;;;;;;1908669;74;21069;-81
2022/07/08 11:34:14;;;;;;;5.03;2.42;;;28.70;95.00;;;;;;1874295;75;21143;-81
2022/07/08 11:36:48;;;;;;;3.67;2.15;;;28.70;95.00;;;;;;1877045;74;21111;-79
2022/07/08 11:39:18;;;;;;;9.93;3.37;;;28.70;95.50;;;;;;1877712;74;21577;-79
2022/07/08 11:41:51;;;;;;;8.15;2.62;;;28.70;95.20;;;;;;1933382;73;21287;-79
2022/07/08 11:44:23;;;;;;;5.87;2.22;;;28.60;95.30;;;;;;1923149;73;21758;-79
2022/07/08 11:46:56;;;;;;;4.85;2.77;;;28.60;95.10;;;;;;1919391;74;21635;-81
2022/07/08 11:49:27;;;;;;;6.58;2.80;;;28.60;95.30;;;;;;1897065;74;21182;-80
2022/07/08 11:51:59;;;;;;;4.55;2.33;;;28.50;95.30;;;;;;1928252;74;21160;-80
2022/07/08 11:54:31;;;;;;;4.78;2.65;;;28.50;95.40;;;;;;1940669;74;21567;-79
2022/07/08 11:57:04;;;;;;;9.90;3.00;;;28.50;95.60;;;;;;1903007;74;21186;-79
2022/07/08 11:59:36;;;;;;;8.70;3.42;;;28.50;95.60;;;;;;1916690;73;21578;-80
2022/07/08 12:02:07;;;;;;;6.33;2.83;;;28.50;95.70;;;;;;1864383;76;21655;-79
2022/07/08 12:04:39;;;;;;;6.47;2.90;;;28.40;95.70;;;;;;1933981;73;21176;-81
2022/07/08 12:07:12;;;;;;;6.40;2.90;;;28.50;95.90;;;;;;1874360;75;21133;-79
2022/07/08 12:09:45;;;;;;;8.58;2.47;;;28.50;96.00;;;;;;1922255;74;21107;-80
2022/07/08 12:12:19;;;;;;;6.00;2.60;;;28.50;95.90;;;;;;1923642;73;21157;-80
2022/07/08 12:14:50;;;;;;;8.53;2.77;;;28.50;95.90;;;;;;1917094;72;21129;-81
2022/07/08 12:17:24;;;;;;;5.15;2.83;;;28.40;95.90;;;;;;1922898;72;21186;-79
2022/07/08 12:19:57;;;;;;;8.65;2.92;;;28.40;95.90;;;;;;1935677;73;21199;-79
2022/07/08 12:22:30;;;;;;;6.50;2.90;;;28.40;96.10;;;;;;1922598;73;21130;-80
2022/07/08 12:25:03;;;;;;;9.23;3.47;;;28.40;96.10;;;;;;1943816;73;21181;-78
2022/07/08 12:27:34;;;;;;;5.70;2.83;;;28.40;96.20;;;;;;1917001;73;21155;-80
2022/07/08 12:30:08;;;;;;;8.88;2.80;;;28.40;96.20;;;;;;1910190;73;21079;-80
2022/07/08 12:32:41;;;;;;;8.50;2.90;;;28.30;96.30;;;;;;1921815;73;21084;-80
2022/07/08 12:35:13;;;;;;;7.40;2.70;;;28.40;96.30;;;;;;1875879;75;21082;-80
2022/07/08 12:37:44;;;;;;;5.40;2.95;;;28.30;96.10;;;;;;1926380;74;21170;-80
2022/07/08 12:40:18;;;;;;;5.30;2.40;;;28.30;96.10;;;;;;1894555;74;21186;-80
2022/07/08 12:42:54;;;;;;;7.37;2.70;;;28.40;96.30;;;;;;1919923;74;21236;-80
2022/07/08 12:45:30;;;;;;;9.65;2.60;;;28.40;96.20;;;;;;1882996;74;21162;-81
2022/07/08 12:48:02;;;;;;;7.40;2.90;;;28.40;96.20;;;;;;1889728;74;21169;-79
2022/07/08 12:50:34;;;;;;;5.83;2.58;;;28.40;96.10;;;;;;1892020;74;21095;-80
2022/07/08 12:53:06;;;;;;;5.15;2.70;;;28.40;95.90;;;;;;1902679;74;21244;-80
2022/07/08 12:55:38;;;;;;;11.80;3.58;;;28.40;95.80;;;;;;1858934;75;21147;-80
2022/07/08 12:58:13;;;;;;;10.60;2.95;;;28.40;95.60;;;;;;1858557;75;21092;-79
2022/07/08 13:00:47;;;;;;;5.50;2.75;;;28.40;95.50;;;;;;1864874;75;21178;-80
2022/07/08 13:03:18;;;;;;;4.90;2.40;;;28.50;95.60;;;;;;1861261;75;21154;-80
2022/07/08 13:05:50;;;;;;;5.97;3.10;;;28.40;95.70;;;;;;1885470;75;21157;-79
2022/07/08 13:08:28;;;;;;;5.85;3.22;;;28.40;95.70;;;;;;1907431;73;21135;-81
2022/07/08 13:10:59;;;;;;;7.58;2.98;;;28.40;95.60;;;;;;1919415;73;21654;-77